• Join FlightAware (Why Join?)
  • Login
  • US Flag 
06:03PM EDT


 

Airport Tracker/Info


-or-


 

Live Flight TrackerFlight Track Log ✈ N272AY ✈ 15-Apr-2013 ✈ EGLL / LHR - KPHL

Flight Track Log - Related Links

Times and Time Zones

All times are in EDT time to prevent confusion due to time zone crossing. See the N272AY flight status page for this flight to view local times or setup timezone preferences in your user account.

Time Position Orientation Groundspeed Altitude Reporting Facility
EDT Latitude Longitude Course Direction KTS MPH feet Rate Location/Type
07:12AM 51.4768 -0.5338 249° West 155 178 2,200  Level FlightAware ADS-B
07:12AM 51.4759 -0.5371 247° West 154 177 2,300 1,620 Climbing FlightAware ADS-B
07:12AM 51.4736 -0.5455 246° West 157 181 2,500 1,980 Climbing FlightAware ADS-B
07:12AM 51.4724 -0.5507 250° West 156 180 2,700 1,620 Climbing FlightAware ADS-B
07:12AM 51.4716 -0.5569 258° West 156 180 2,800 1,500 Climbing FlightAware ADS-B
07:12AM 51.4709 -0.5636 260° West 155 178 3,000 1,380 Climbing FlightAware ADS-B
07:13AM 51.4683 -0.5807 256° West 161 185 3,300 1,080 Climbing FlightAware ADS-B
07:13AM 51.4659 -0.5956 255° West 175 201 3,500 900 Climbing FlightAware ADS-B
07:13AM 51.4630 -0.6143 256° West 193 222 3,700 960 Climbing FlightAware ADS-B
07:13AM 51.4595 -0.6374 256° West 212 244 4,000 1,200 Climbing FlightAware ADS-B
07:14AM 51.4565 -0.6587 257° West 222 255 4,300 1,260 Climbing FlightAware ADS-B
07:14AM 51.4552 -0.6681 258° West 228 262 4,400 1,200 Climbing FlightAware ADS-B
07:14AM 51.4547 -0.6742 263° West 233 268 4,500 1,680 Climbing FlightAware ADS-B
07:14AM 51.4544 -0.6805 266° West 236 272 4,600 2,220 Climbing FlightAware ADS-B
07:14AM 51.4544 -0.7028 270° West 243 280 5,100 2,460 Climbing FlightAware ADS-B
07:14AM 51.4544 -0.7330 270° West 247 284 5,800 2,580 Climbing FlightAware ADS-B
07:14AM 51.4543 -0.7607 270° West 248 285 6,500 2,580 Climbing FlightAware ADS-B
07:15AM 51.4542 -0.7875 270° West 249 287 7,100 2,460 Climbing FlightAware ADS-B
07:15AM 51.4538 -0.8157 269° West 252 290 7,700 2,280 Climbing FlightAware ADS-B
07:15AM 51.4534 -0.8459 269° West 254 292 8,300 2,400 Climbing FlightAware ADS-B
07:15AM 51.4533 -0.8661 270° West 256 295 8,800 2,580 Climbing FlightAware ADS-B
07:16AM 51.4535 -0.8759 272° West 258 297 9,000 2,400 Climbing FlightAware ADS-B
07:16AM 51.4546 -0.8848 281° West 261 300 9,200 2,400 Climbing FlightAware ADS-B
07:16AM 51.4565 -0.8945 287° West 262 302 9,400 2,100 Climbing FlightAware ADS-B
07:16AM 51.4698 -0.9531 290° West 275 316 10,500 1,500 Climbing FlightAware ADS-B
07:17AM 51.4834 -1.0145 290° West 305 351 11,000 960 Climbing FlightAware ADS-B
07:17AM 51.4989 -1.0830 290° West 337 388 11,500 1,320 Climbing FlightAware ADS-B
07:18AM 51.5162 -1.1591 290° West 352 405 12,400 1,440 Climbing FlightAware ADS-B
07:18AM 51.5330 -1.2337 290° West 358 412 13,000 660 Climbing FlightAware ADS-B
07:19AM 51.5499 -1.3092 290° West 358 412 13,100 960 Climbing FlightAware ADS-B
07:19AM 51.5671 -1.3859 290° West 364 419 14,000  Climbing FlightAware ADS-B
07:20AM 51.5771 -1.4299 290° West 390 449 13,100 2,160 Descending FlightAware UK
07:20AM 51.5847 -1.4636 290° West 368 423 15,100 2,280 Climbing FlightAware ADS-B
07:20AM 51.5979 -1.5228 290° West 398 458 14,500 2,460 Descending FlightAware UK
07:20AM 51.6026 -1.5435 290° West 368 423 16,400 2,220 Climbing FlightAware ADS-B
07:21AM 51.6118 -1.5844 290° West 400 460 15,400 1,860 Descending FlightAware UK
07:21AM 51.6205 -1.6237 290° West 370 426 17,400 1,620 Climbing FlightAware ADS-B
07:21AM 51.6323 -1.6768 290° West 406 467 16,400 1,800 Descending FlightAware UK
07:21AM 51.6382 -1.7030 290° West 377 434 18,300 3,900 Climbing FlightAware ADS-B
07:22AM 51.6560 -1.7835 290° West 385 443 19,000 -360 Climbing FlightAware ADS-B
07:22AM 51.6677 -1.8374 290° West 416 479 18,000 1,500 Descending FlightAware UK
07:22AM 51.6740 -1.8665 290° West 391 450 19,800 1,380 Climbing FlightAware ADS-B
07:23AM 51.6855 -1.9198 290° West 422 486 18,700 1,560 Descending FlightAware UK
07:23AM 51.6918 -1.9502 290° West 395 455 20,600 4,260 Climbing FlightAware ADS-B
07:23AM 51.7094 -2.0347 289° West 390 449 21,700 1,860 Climbing FlightAware ADS-B
07:24AM 51.7213 -2.0914 289° West 392 451 22,200 -1,200 Climbing FlightAware ADS-B
07:24AM 51.7288 -2.1356 289° West 432 497 21,000 1,200 Descending FlightAware UK
07:24AM 51.7355 -2.1771 289° West 398 458 22,800 1,200 Climbing FlightAware ADS-B
07:24AM 51.7426 -2.2214 289° West 436 502 21,600 1,140 Descending FlightAware UK
07:25AM 51.7499 -2.2657 289° West 403 464 23,400 3,120 Climbing FlightAware ADS-B
07:25AM 51.7645 -2.3557 285° West 409 471 24,000 -600 Climbing FlightAware ADS-B
07:26AM 51.7739 -2.4140 285° West 446 513 22,900 1,200 Descending FlightAware UK
07:26AM 51.7790 -2.4457 285° West 412 474 24,600 1,200 Climbing FlightAware ADS-B
07:26AM 51.7883 -2.5035 285° West 450 518 23,500 1,140 Descending FlightAware UK
07:26AM 51.7938 -2.5379 285° West 416 479 25,200 1,140 Climbing FlightAware ADS-B
07:27AM 51.8056 -2.6115 285° West 452 520 24,200 1,320 Descending FlightAware UK
07:27AM 51.8088 -2.6317 285° West 418 481 25,900 960 Climbing FlightAware ADS-B
07:27AM 51.8169 -2.6832 285° West 456 525 24,600 1,020 Descending FlightAware UK
07:27AM 51.8253 -2.7363 285° West 421 484 26,500 960 Climbing FlightAware ADS-B
07:28AM 51.8372 -2.8112 285° West 460 529 25,300 900 Descending FlightAware UK
07:28AM 51.8406 -2.8339 285° West 425 489 27,000 960 Climbing FlightAware ADS-B
07:28AM 51.8488 -2.8856 285° West 462 532 25,700 960 Descending FlightAware UK
07:28AM 51.8553 -2.9275 285° West 428 493 27,500 2,880 Climbing FlightAware ADS-B
07:29AM 51.8713 -3.0301 284° West 431 496 28,000 -960 Climbing FlightAware ADS-B
07:29AM 51.8805 -3.0899 284° West 468 539 26,700 780 Descending FlightAware UK
07:29AM 51.8859 -3.1248 284° West 434 499 28,400 960 Climbing FlightAware ADS-B
07:30AM 51.8950 -3.1839 284° West 472 543 27,200 960 Descending FlightAware UK
07:30AM 51.9010 -3.2230 284° West 436 502 28,900 2,280 Climbing FlightAware ADS-B
07:31AM 51.9230 -3.3640 284° West 438 504 29,500 720 Climbing FlightAware
07:31AM 51.9315 -3.4231 283° West 440 506 29,700 -1,680 Climbing FlightAware ADS-B
07:31AM 51.9413 -3.4884 283° West 480 552 28,500 1,140 Descending FlightAware UK
07:32AM 51.9489 -3.5378 283° West 438 504 30,400 1,320 Climbing FlightAware ADS-B
07:32AM 51.9571 -3.6022 283° West 476 548 29,300 1,200 Descending FlightAware UK
07:32AM 51.9683 -3.6894 283° West 428 493 31,400 1,200 Climbing FlightAware ADS-B
07:33AM 51.9763 -3.7528 283° West 476 548 30,300 1,320 Descending FlightAware UK
07:33AM 51.9807 -3.7879 283° West 425 489 32,100 1,200 Climbing FlightAware ADS-B
07:33AM 51.9881 -3.8459 283° West 474 545 30,900 1,200 Descending FlightAware UK
07:33AM 51.9923 -3.8812 283° West 418 481 32,700 960 Climbing FlightAware ADS-B
07:34AM 52.0015 -3.9554 283° West 468 539 31,500 900 Descending FlightAware UK
07:34AM 52.0046 -3.9806 283° West 416 479 33,200 780 Climbing FlightAware ADS-B
07:34AM 52.0105 -4.0281 283° West 466 536 31,800 360 Descending FlightAware UK
07:34AM 52.0165 -4.0765 283° West 419 482 33,400 480 Climbing FlightAware ADS-B
07:35AM 52.0241 -4.1387 283° West 476 548 32,100 1,020 Descending FlightAware UK
07:35AM 52.0289 -4.1785 283° West 417 480 34,000 1,380 Climbing FlightAware ADS-B
07:35AM 52.0353 -4.2308 283° West 472 543 32,800 1,200 Descending FlightAware UK
07:36AM 52.0400 -4.2670 283° West 409 471 34,600 3,660 Climbing FlightAware
07:36AM 52.0475 -4.3321 281° West 409 471 34,900 -1,440 Climbing FlightAware ADS-B
07:36AM 52.0570 -4.4110 281° West 466 536 33,500 360 Descending FlightAware UK
07:36AM 52.0591 -4.4297 281° West 411 473 35,100 480 Climbing FlightAware ADS-B
07:37AM 52.0656 -4.4838 281° West 468 539 33,700 600 Descending FlightAware UK
07:37AM 52.0701 -4.5221 281° West 412 474 35,400 600 Climbing FlightAware ADS-B
07:37AM 52.0764 -4.5748 281° West 468 539 34,000 420 Descending FlightAware UK
07:38AM 52.0850 -4.6450 281° West 413 475 35,700 3,360 Climbing FlightAware
07:38AM 52.0876 -4.6701 280° West 413 475 35,800 -3,420 Climbing FlightAware ADS-B
07:38AM 52.0936 -4.7210 280° West 466 536 34,400 -2,520 Descending FlightAware UK
07:38AM 52.0999 -4.7759 281° West 468 539 34,400 4,320 Level FlightAware UK
07:38AM 52.1000 -4.7780 281° West 414 476 36,000 240 Climbing FlightAware
07:39AM 52.1084 -4.8492 281° West 468 539 34,500 -2,400 Descending FlightAware UK
07:39AM 52.1149 -4.9042 281° West 468 539 34,500 4,500 Level FlightAware UK
07:39AM 52.1150 -4.9030 281° West 416 479 36,000  Climbing FlightAware
07:39AM 52.1211 -4.9587 281° West 466 536 34,500 -2,700 Descending FlightAware UK
07:40AM 52.1274 -5.0140 281° West 468 539 34,500 3,720 Level FlightAware UK
07:40AM 52.1290 -5.0260 281° West 417 480 36,000  Climbing FlightAware
07:40AM 52.1358 -5.0880 281° West 468 539 34,500 -2,520 Descending FlightAware UK
07:40AM 52.1422 -5.1435 281° West 470 541 34,500 3,300 Level FlightAware UK
07:40AM 52.1450 -5.1620 281° West 419 482 36,000  Climbing FlightAware
07:41AM 52.1550 -5.2165 281° West 472 543 34,500 -2,760 Descending FlightAware UK
07:41AM 52.1653 -5.2708 287° West 472 543 34,500 3,000 Level FlightAware UK
07:41AM 52.1710 -5.3010 287° West 420 483 36,000  Climbing FlightAware
07:42AM 52.1823 -5.3612 287° West 470 541 34,500 -2,520 Descending FlightAware UK
07:42AM 52.1926 -5.4153 287° West 470 541 34,500 4,080 Level FlightAware UK
07:42AM 52.1930 -5.4200 287° West 418 481 36,000  Climbing FlightAware
07:42AM 52.2063 -5.4875 287° West 468 539 34,500 -2,400 Descending FlightAware UK
07:43AM 52.2162 -5.5415 287° West 468 539 34,500 4,500 Level FlightAware UK
07:43AM 52.2160 -5.5390 287° West 417 480 36,000  Climbing FlightAware
07:43AM 52.2263 -5.5955 287° West 470 541 34,500 -2,700 Descending FlightAware UK
07:43AM 52.2364 -5.6494 287° West 470 541 34,500 3,720 Level FlightAware UK
07:43AM 52.2390 -5.6590 287° West 419 482 36,000  Climbing FlightAware
07:44AM 52.2539 -5.7194 287° West 468 539 34,500 -2,520 Descending FlightAware UK
07:44AM 52.2692 -5.7712 296° West 468 539 34,500 4,080 Level FlightAware UK
07:44AM 52.2710 -5.7760 296° West 422 486 36,000  Climbing FlightAware
07:44AM 52.2893 -5.8398 296° West 470 541 34,500 -2,400 Descending FlightAware UK
07:45AM 52.3044 -5.8913 296° West 470 541 34,500 3,600 Level FlightAware UK
07:45AM 52.3090 -5.9070 296° West 420 483 36,000  Climbing FlightAware
07:45AM 52.3246 -5.9600 296° West 468 539 34,500 -2,580 Descending FlightAware UK
07:45AM 52.3395 -6.0115 295° West 468 539 34,500 3,180 Level FlightAware UK
07:45AM 52.3450 -6.0310 295° West 420 483 36,000  Climbing FlightAware
07:46AM 52.3643 -6.0967 295° West 466 536 34,500 -2,400 Descending FlightAware UK
07:46AM 52.3792 -6.1481 295° West 466 536 34,500 4,500 Level FlightAware UK
07:46AM 52.3790 -6.1480 295° West 419 482 36,000  Climbing FlightAware
07:46AM 52.3941 -6.1996 295° West 466 536 34,500 -2,700 Descending FlightAware UK
07:47AM 52.4090 -6.2511 295° West 468 539 34,500 3,060 Level FlightAware UK
07:47AM 52.4170 -6.2800 295° West 422 486 36,000  Climbing FlightAware
07:47AM 52.4339 -6.3373 295° West 468 539 34,500 -2,460 Descending FlightAware UK
07:47AM 52.4488 -6.3893 295° West 468 539 34,500 4,260 Level FlightAware UK
07:47AM 52.4510 -6.3960 295° West 422 486 36,000  Climbing FlightAware
07:48AM 52.4639 -6.4412 295° West 470 541 34,500 -2,760 Descending FlightAware UK
07:48AM 52.4823 -6.4913 301° West 470 541 34,500 3,000 Level FlightAware UK
07:48AM 52.4930 -6.5170 301° West 428 493 36,000  Climbing FlightAware
07:49AM 52.5157 -6.5716 301° West 470 541 34,500 -2,520 Descending FlightAware UK
07:49AM 52.5356 -6.6198 304° West 468 539 34,500 4,080 Level FlightAware UK
07:49AM 52.5380 -6.6260 304° West 427 491 36,000  Climbing FlightAware
07:49AM 52.5623 -6.6841 304° West 470 541 34,500  Descending FlightAware UK
07:49AM 52.5720 -6.7070 304° West 428 493 36,000  Climbing FlightAware
07:50AM 52.5823 -6.7323 304° West 472 543 34,500 -4,500 Descending FlightAware UK
07:50AM 52.5956 -6.7645 304° West 470 541 34,500  Level FlightAware UK
07:50AM 52.6155 -6.8126 304° West 464 534 34,500 2,520 Level FlightAware UK
07:50AM 52.6280 -6.8420 304° West 427 491 36,000  Climbing FlightAware
07:51AM 52.6555 -6.9090 304° West 464 534 34,500 -2,460 Descending FlightAware UK
07:51AM 52.6755 -6.9576 304° West 470 541 34,500 4,260 Level FlightAware UK
07:51AM 52.6730 -6.9530 304° West 433 498 36,000  Climbing FlightAware
07:51AM 52.6955 -7.0068 304° West 474 545 34,500 -2,760 Descending FlightAware UK
07:52AM 52.7156 -7.0560 304° West 468 539 34,500 3,000 Level FlightAware UK
07:52AM 52.7240 -7.0760 304° West 428 493 36,000  Climbing FlightAware
07:52AM 52.7491 -7.1375 304° West 468 539 34,500 -2,520 Descending FlightAware UK
07:52AM 52.7689 -7.1861 304° West 466 536 34,500 4,080 Level FlightAware UK
07:52AM 52.7680 -7.1830 304° West 428 493 36,000  Climbing FlightAware
07:53AM 52.7950 -7.2504 304° West 468 539 34,500  Descending FlightAware UK
07:53AM 52.8110 -7.2910 304° West 428 493 36,000  Climbing FlightAware
07:53AM 52.8346 -7.3479 304° West 466 536 34,500 -2,700 Descending FlightAware UK
07:54AM 52.8544 -7.3966 304° West 466 536 34,500 3,060 Level FlightAware UK
07:54AM 52.8610 -7.4140 304° West 429 494 36,000  Climbing FlightAware
07:54AM 52.8872 -7.4783 304° West 466 536 34,500 -2,460 Descending FlightAware UK
07:54AM 52.9069 -7.5275 304° West 468 539 34,500 4,260 Level FlightAware UK
07:54AM 52.9050 -7.5230 304° West 431 496 36,000  Climbing FlightAware
07:55AM 52.9268 -7.5768 304° West 468 539 34,500 -2,760 Descending FlightAware UK
07:55AM 52.9466 -7.6262 304° West 468 539 34,500 3,000 Level FlightAware UK
07:55AM 52.9550 -7.6470 304° West 431 496 36,000  Climbing FlightAware
07:56AM 52.9796 -7.7088 304° West 468 539 34,500 -2,520 Descending FlightAware UK
07:56AM 52.9994 -7.7585 303° West 468 539 34,500 4,080 Level FlightAware UK
07:56AM 52.9980 -7.7530 303° West 432 497 36,000  Climbing FlightAware
07:56AM 53.0258 -7.8246 303° West 468 539 34,500 -2,100 Descending FlightAware UK
07:57AM 53.0456 -7.8743 304° West 470 541 34,700 5,100 Climbing FlightAware UK
07:57AM 53.0430 -7.8680 304° West 428 493 36,200 300 Climbing FlightAware
07:57AM 53.0653 -7.9243 304° West 466 536 34,800 -2,160 Descending FlightAware UK
07:57AM 53.0850 -7.9744 303° West 468 539 35,000 3,720 Climbing FlightAware UK
07:57AM 53.0910 -7.9900 303° West 428 493 36,600 600 Climbing FlightAware
07:58AM 53.1179 -8.0578 303° West 468 539 35,300 -1,980 Descending FlightAware UK
07:58AM 53.1376 -8.1079 303° West 466 536 35,400 4,560 Climbing FlightAware UK
07:58AM 53.1370 -8.1070 303° West 430 495 36,900 300 Climbing FlightAware
07:58AM 53.1573 -8.1581 303° West 468 539 35,500 -2,580 Descending FlightAware UK
07:59AM 53.1771 -8.2086 303° West 468 539 35,500 3,600 Level FlightAware UK
07:59AM 53.1810 -8.2190 303° West 438 504 37,000  Climbing FlightAware
07:59AM 53.2035 -8.2761 303° West 470 541 35,500 -2,580 Descending FlightAware UK
07:59AM 53.2235 -8.3272 303° West 470 541 35,500 3,180 Level FlightAware UK
07:59AM 53.2310 -8.3460 303° West 442 509 37,000  Climbing FlightAware
08:00AM 53.2568 -8.4132 303° West 470 541 35,500 -2,400 Descending FlightAware UK
08:00AM 53.2765 -8.4640 303° West 468 539 35,500 4,500 Level FlightAware UK
08:00AM 53.2730 -8.4560 303° West 433 498 37,000  Climbing FlightAware
08:00AM 53.2964 -8.5151 303° West 468 539 35,500 -2,700 Descending FlightAware UK
08:01AM 53.3160 -8.5661 303° West 470 541 35,500 3,060 Level FlightAware UK
08:01AM 53.3240 -8.5870 303° West 434 499 37,000  Climbing FlightAware
08:01AM 53.3488 -8.6513 303° West 470 541 35,500 -2,460 Descending FlightAware UK
08:01AM 53.3685 -8.7024 303° West 468 539 35,500 4,260 Level FlightAware UK
08:01AM 53.3640 -8.6920 303° West 433 498 37,000  Climbing FlightAware
08:02AM 53.3881 -8.7535 303° West 468 539 35,500 -2,760 Descending FlightAware UK
08:02AM 53.4077 -8.8047 303° West 468 539 35,500 3,600 Level FlightAware UK
08:02AM 53.4130 -8.8190 303° West 438 504 37,000  Climbing FlightAware
08:02AM 53.4338 -8.8733 303° West 468 539 35,500 -2,580 Descending FlightAware UK
08:03AM 53.4534 -8.9248 303° West 468 539 35,500 3,900 Level FlightAware UK
08:03AM 53.4520 -8.9220 303° West 435 501 37,000  Climbing FlightAware
08:03AM 53.4795 -8.9936 303° West 470 541 35,500  Descending FlightAware UK
08:04AM 53.5130 -9.0820 303° West 440 506 37,000 1,080 Climbing FlightAware
08:04AM 53.5590 -9.2040 302° West 437 503 37,000  Level FlightAware
08:05AM 53.6040 -9.3250 302° West 437 503 37,000  Level FlightAware
08:06AM 53.6530 -9.4540 303° West 438 504 37,000  Level FlightAware
08:07AM 53.6940 -9.5660 302° West 442 509 37,000  Level FlightAware
08:07AM 53.7370 -9.6840 302° West 438 504 37,000  Level FlightAware
08:08AM 53.7900 -9.8260 302° West 438 504 37,000  Level FlightAware
08:09AM 53.8380 -9.9580 302° West 442 509 37,000  Level FlightAware
08:09AM 53.8700 -10.0450 302° West 439 505 37,000  Level FlightAware
08:10AM 53.9230 -10.1930 301° West 441 507 37,000  Level FlightAware
08:11AM 53.9660 -10.3120 302° West 440 506 37,000  Level FlightAware
08:12AM 54.0330 -10.4970 302° West 440 506 37,000  Level FlightAware
08:12AM 54.0760 -10.6180 301° West 443 510 37,000  Level FlightAware
08:13AM 54.1170 -10.7350 301° West 442 509 37,000  Level FlightAware
08:14AM 54.1640 -10.8670 301° West 443 510 37,000  Level FlightAware
08:14AM 54.2050 -10.9850 301° West 444 511 37,000  Level FlightAware
08:15AM 54.2550 -11.1280 301° West 446 513 37,000  Level FlightAware
08:16AM 54.2960 -11.2470 301° West 448 516 37,000  Level FlightAware
08:17AM 54.3440 -11.3850 301° West 449 517 37,000  Level FlightAware
08:18AM 54.4010 -11.5520 300° West 449 517 37,000  Level FlightAware
08:18AM 54.4380 -11.6590 301° West 450 518 37,000  Level FlightAware
08:19AM 54.4910 -11.8150 300° West 451 519 37,000  Level FlightAware
08:20AM 54.5440 -11.9720 300° West 450 518 37,000  Level FlightAware
08:21AM 54.6140 -12.1820 300° West 449 517 37,000  Level FlightAware
08:22AM 54.6590 -12.3180 300° West 448 516 37,000  Level FlightAware
08:22AM 54.6970 -12.4320 300° West 444 511 37,000  Level FlightAware
08:23AM 54.7440 -12.5770 299° West 445 512 37,000  Level FlightAware
08:24AM 54.7900 -12.7170 300° West 447 514 37,000  Level FlightAware
08:25AM 54.8320 -12.8440 300° West 444 511 37,000  Level FlightAware
08:25AM 54.8730 -12.9720 299° West 445 512 37,000  Level FlightAware
08:26AM 54.9360 -13.1680 299° West 446 513 37,000  Level FlightAware
08:27AM 54.9680 -13.2690 299° West 445 512 37,000  Level FlightAware
08:28AM 55.0190 -13.4340 298° West 444 511 37,000  Level FlightAware
08:28AM 55.0660 -13.5810 299° West 445 512 37,000  Level FlightAware
08:29AM 55.0990 -13.6890 298° West 445 512 37,000  Level FlightAware
08:30AM 55.1400 -13.8240 298° West 445 512 37,000  Level FlightAware
08:31AM 55.1730 -13.9320 298° West 445 512 37,000  Level FlightAware
08:31AM 55.2060 -14.0400 298° West 445 512 37,000  Level FlightAware
08:32AM 55.2390 -14.1490 298° West 445 512 37,000  Level FlightAware
08:33AM 55.2710 -14.2570 298° West 445 512 37,000  Level FlightAware
08:33AM 55.3040 -14.3660 298° West 445 512 37,000  Level FlightAware
08:34AM 55.3450 -14.5020 298° West 445 512 37,000  Level FlightAware
08:35AM 55.3780 -14.6100 298° West 445 512 37,000  Level FlightAware
08:35AM 55.4110 -14.7190 298° West 445 512 37,000  Level FlightAware
08:36AM 55.4440 -14.8280 298° West 445 512 37,000  Level FlightAware
08:37AM 55.4850 -14.9640 298° West 445 512 37,000  Level FlightAware
08:38AM 55.5180 -15.0740 298° West 445 512 37,000  Level FlightAware
08:40AM 55.5339 -15.4789 274° West  Level Estimated
08:41AM 55.5419 -15.6941 274° West  Level Estimated
08:42AM 55.5494 -15.9090 274° West  Level Estimated
08:43AM 55.5565 -16.1241 273° West  Level Estimated
08:44AM 55.5633 -16.3393 273° West  Level Estimated
08:45AM 55.5697 -16.5545 273° West  Level Estimated
08:46AM 55.5757 -16.7697 273° West  Level Estimated
08:47AM 55.5814 -16.9851 273° West  Level Estimated
08:48AM 55.5867 -17.2005 273° West  Level Estimated
08:49AM 55.5915 -17.4159 272° West  Level Estimated
08:50AM 55.5961 -17.6315 272° West  Level Estimated
08:51AM 55.6002 -17.8470 272° West  Level Estimated
08:52AM 55.6040 -18.0625 272° West  Level Estimated
08:53AM 55.6073 -18.2781 272° West  Level Estimated
08:54AM 55.6103 -18.4937 272° West  Level Estimated
08:55AM 55.6129 -18.7093 271° West  Level Estimated
08:56AM 55.6152 -18.9249 271° West  Level Estimated
08:57AM 55.6171 -19.1406 271° West  Level Estimated
08:58AM 55.6185 -19.3562 271° West  Level Estimated
08:59AM 55.6197 -19.5719 271° West  Level Estimated
09:00AM 55.6204 -19.7876 270° West  Level Estimated
09:01AM 55.6207 -20.0034 270° West  Level Estimated
09:02AM 55.6207 -20.2191 270° West  Level Estimated
09:02AM 57.0000 -20.0000 285° West 467 537 37,000  Level ETMS Enhanced Traffic Management System
09:03AM 55.6203 -20.4348 270° West  Level Estimated
09:04AM 55.6195 -20.6505 270° West  Level Estimated
09:05AM 55.6184 -20.8662 270° West  Level Estimated
09:06AM 55.6168 -21.0819 269° West  Level Estimated
09:07AM 55.6149 -21.2975 269° West  Level Estimated
09:08AM 57.2210 -21.6257 283° West 467 537 37,000  Level FlightAware Transoceanic
09:09AM 57.2509 -21.8595 283° West 467 537 37,000  Level FlightAware Transoceanic
09:10AM 57.2803 -22.0936 283° West 467 537 37,000  Level FlightAware Transoceanic
09:11AM 57.3092 -22.3282 283° West 467 537 37,000  Level FlightAware Transoceanic
09:12AM 57.3378 -22.5631 283° West 467 537 37,000  Level FlightAware Transoceanic
09:13AM 57.3659 -22.7984 282° West 467 537 37,000  Level FlightAware Transoceanic
09:14AM 57.3935 -23.0340 282° West 467 537 37,000  Level FlightAware Transoceanic
09:15AM 57.4208 -23.2700 282° West 467 537 37,000  Level FlightAware Transoceanic
09:16AM 57.4476 -23.5063 282° West 467 537 37,000  Level FlightAware Transoceanic
09:17AM 57.4739 -23.7430 282° West 467 537 37,000  Level FlightAware Transoceanic
09:18AM 57.4998 -23.9800 281° West 467 537 37,000  Level FlightAware Transoceanic
09:19AM 57.5252 -24.2173 281° West 467 537 37,000  Level FlightAware Transoceanic
09:20AM 57.5502 -24.4550 281° West 467 537 37,000  Level FlightAware Transoceanic
09:21AM 57.5748 -24.6930 281° West 467 537 37,000  Level FlightAware Transoceanic
09:22AM 57.5989 -24.9313 281° West 467 537 37,000  Level FlightAware Transoceanic
09:23AM 57.6226 -25.1700 280° West 467 537 37,000  Level FlightAware Transoceanic
09:24AM 57.6458 -25.4089 280° West 467 537 37,000  Level FlightAware Transoceanic
09:25AM 57.6685 -25.6481 280° West 467 537 37,000  Level FlightAware Transoceanic
09:26AM 57.6908 -25.8877 280° West 467 537 37,000  Level FlightAware Transoceanic
09:27AM 57.7127 -26.1275 280° West 467 537 37,000  Level FlightAware Transoceanic
09:28AM 57.7341 -26.3676 279° West 467 537 37,000  Level FlightAware Transoceanic
09:29AM 57.7550 -26.6080 279° West 467 537 37,000  Level FlightAware Transoceanic
09:30AM 57.7755 -26.8487 279° West 467 537 37,000  Level FlightAware Transoceanic
09:31AM 57.7955 -27.0897 279° West 467 537 37,000  Level FlightAware Transoceanic
09:32AM 57.8151 -27.3309 279° West 467 537 37,000  Level FlightAware Transoceanic
09:33AM 57.8342 -27.5723 278° West 467 537 37,000  Level FlightAware Transoceanic
09:34AM 57.8529 -27.8141 278° West 467 537 37,000  Level FlightAware Transoceanic
09:35AM 57.8711 -28.0560 278° West 467 537 37,000  Level FlightAware Transoceanic
09:36AM 57.8888 -28.2982 278° West 467 537 37,000  Level FlightAware Transoceanic
09:37AM 57.9061 -28.5407 278° West 467 537 37,000  Level FlightAware Transoceanic
09:38AM 57.9229 -28.7834 277° West 467 537 37,000  Level FlightAware Transoceanic
09:39AM 57.9393 -29.0263 277° West 467 537 37,000  Level FlightAware Transoceanic
09:40AM 57.9551 -29.2694 277° West 467 537 37,000  Level FlightAware Transoceanic
09:41AM 57.9706 -29.5127 277° West 467 537 37,000  Level FlightAware Transoceanic
09:42AM 57.9855 -29.7563 277° West 467 537 37,000  Level FlightAware Transoceanic
09:43AM 57.9991 -29.9846 277° West  Level FlightAware Approximate
09:44AM 58.0123 -30.2132 276° West  Level FlightAware Approximate
09:45AM 58.0076 -30.1984 274° West  Level FlightAware Approximate
09:46AM 58.0161 -30.4278 274° West  Level FlightAware Approximate
09:47AM 58.0241 -30.6573 274° West  Level FlightAware Approximate
09:48AM 58.0318 -30.8869 274° West  Level FlightAware Approximate
09:49AM 58.0390 -31.1166 273° West  Level FlightAware Approximate
09:50AM 58.0458 -31.3463 273° West  Level FlightAware Approximate
09:51AM 58.0522 -31.5762 273° West  Level FlightAware Approximate
09:52AM 58.0581 -31.8062 273° West  Level FlightAware Approximate
09:53AM 58.0637 -32.0362 273° West  Level FlightAware Approximate
09:54AM 58.0688 -32.2662 273° West  Level FlightAware Approximate
09:55AM 58.0735 -32.4964 272° West  Level FlightAware Approximate
09:56AM 58.0778 -32.7266 272° West  Level FlightAware Approximate
09:57AM 58.0817 -32.9568 272° West  Level FlightAware Approximate
09:58AM 58.0852 -33.1871 272° West  Level FlightAware Approximate
09:59AM 58.0883 -33.4175 272° West  Level FlightAware Approximate
10:00AM 58.0909 -33.6479 271° West  Level FlightAware Approximate
10:01AM 58.0932 -33.8783 271° West  Level FlightAware Approximate
10:02AM 58.0950 -34.1087 271° West  Level FlightAware Approximate
10:03AM 58.0964 -34.3392 271° West  Level FlightAware Approximate
10:04AM 58.0974 -34.5697 271° West  Level FlightAware Approximate
10:05AM 58.0979 -34.8002 270° West  Level FlightAware Approximate
10:06AM 58.0981 -35.0306 270° West  Level FlightAware Approximate
10:07AM 58.0978 -35.2611 270° West  Level FlightAware Approximate
10:08AM 58.0971 -35.4916 270° West  Level FlightAware Approximate
10:09AM 58.0960 -35.7221 270° West  Level FlightAware Approximate
10:10AM 58.0945 -35.9525 269° West  Level FlightAware Approximate
10:11AM 58.0926 -36.1830 269° West  Level FlightAware Approximate
10:12AM 58.0903 -36.4134 269° West  Level FlightAware Approximate
10:13AM 58.0875 -36.6437 269° West  Level FlightAware Approximate
10:14AM 58.0843 -36.8741 269° West  Level FlightAware Approximate
10:15AM 58.0807 -37.1044 268° West  Level FlightAware Approximate
10:16AM 58.0767 -37.3346 268° West  Level FlightAware Approximate
10:17AM 58.0723 -37.5648 268° West  Level FlightAware Approximate
10:18AM 58.0675 -37.7949 268° West  Level FlightAware Approximate
10:19AM 58.0622 -38.0250 268° West  Level FlightAware Approximate
10:20AM 58.0566 -38.2550 267° West  Level FlightAware Approximate
10:21AM 58.0505 -38.4849 267° West  Level FlightAware Approximate
10:22AM 58.0440 -38.7147 267° West  Level FlightAware Approximate
10:23AM 58.0371 -38.9445 267° West  Level FlightAware Approximate
10:24AM 58.0298 -39.1742 267° West  Level FlightAware Approximate
10:25AM 58.0220 -39.4037 266° West  Level FlightAware Approximate
10:26AM 58.0139 -39.6332 266° West  Level FlightAware Approximate
10:27AM 58.0053 -39.8625 266° West  Level FlightAware Approximate
10:28AM 57.9866 -40.0885 254° West  Level FlightAware Approximate
10:29AM 57.9528 -40.3092 254° West  Level FlightAware Approximate
10:30AM 57.9187 -40.5294 254° West  Level FlightAware Approximate
10:31AM 57.8842 -40.7492 254° West  Level FlightAware Approximate
10:32AM 57.8493 -40.9687 253° West  Level FlightAware Approximate
10:33AM 57.8140 -41.1876 253° West  Level FlightAware Approximate
10:34AM 57.7784 -41.4062 253° West  Level FlightAware Approximate
10:35AM 57.7424 -41.6243 253° West  Level FlightAware Approximate
10:36AM 57.7060 -41.8420 253° West  Level FlightAware Approximate
10:37AM 57.6692 -42.0592 253° West  Level FlightAware Approximate
10:38AM 57.6320 -42.2760 252° West  Level FlightAware Approximate
10:39AM 57.5945 -42.4924 252° West  Level FlightAware Approximate
10:40AM 57.5567 -42.7083 252° West  Level FlightAware Approximate
10:41AM 57.5184 -42.9238 252° West  Level FlightAware Approximate
10:42AM 57.4798 -43.1387 252° West  Level FlightAware Approximate
10:43AM 57.4408 -43.3533 251° West  Level FlightAware Approximate
10:44AM 57.4015 -43.5674 251° West  Level FlightAware Approximate
10:45AM 57.3618 -43.7810 251° West  Level FlightAware Approximate
10:46AM 57.3217 -43.9942 251° West  Level FlightAware Approximate
10:47AM 57.2813 -44.2069 251° West  Level FlightAware Approximate
10:48AM 57.2405 -44.4191 251° West  Level FlightAware Approximate
10:49AM 57.1993 -44.6309 250° West  Level FlightAware Approximate
10:50AM 57.1578 -44.8422 250° West  Level FlightAware Approximate
10:51AM 57.1160 -45.0530 250° West  Level FlightAware Approximate
10:52AM 57.0738 -45.2633 250° West  Level FlightAware Approximate
10:53AM 57.0312 -45.4731 250° West  Level FlightAware Approximate
10:54AM 56.9883 -45.6825 249° West  Level FlightAware Approximate
10:55AM 56.9451 -45.8914 249° West  Level FlightAware Approximate
10:56AM 56.9015 -46.0998 249° West  Level FlightAware Approximate
10:57AM 56.8575 -46.3077 249° West  Level FlightAware Approximate
10:58AM 56.8132 -46.5151 249° West  Level FlightAware Approximate
10:59AM 56.7686 -46.7220 249° West  Level FlightAware Approximate
11:00AM 56.7236 -46.9285 248° West  Level FlightAware Approximate
11:01AM 56.6783 -47.1344 248° West  Level FlightAware Approximate
11:02AM 56.6326 -47.3399 248° West  Level FlightAware Approximate
11:03AM 56.5866 -47.5448 248° West  Level FlightAware Approximate
11:04AM 56.5403 -47.7493 248° West  Level FlightAware Approximate
11:05AM 56.4936 -47.9532 248° West  Level FlightAware Approximate
11:06AM 56.4466 -48.1567 247° West  Level FlightAware Approximate
11:07AM 56.3993 -48.3596 247° West  Level FlightAware Approximate
11:08AM 56.3517 -48.5620 247° West  Level FlightAware Approximate
11:09AM 56.3037 -48.7639 247° West  Level FlightAware Approximate
11:10AM 56.2553 -48.9654 247° West  Level FlightAware Approximate
11:11AM 56.2067 -49.1663 247° West  Level FlightAware Approximate
11:12AM 56.1577 -49.3667 246° West  Level FlightAware Approximate
11:13AM 56.1084 -49.5666 246° West  Level FlightAware Approximate
11:14AM 56.0588 -49.7659 246° West  Level FlightAware Approximate
11:15AM 56.0089 -49.9648 246° West  Level FlightAware Approximate
11:16AM 55.9507 -50.1559 241° Southwest  Level FlightAware Approximate
11:17AM 55.8905 -50.3449 240° Southwest  Level FlightAware Approximate
11:18AM 55.8301 -50.5333 240° Southwest  Level FlightAware Approximate
11:19AM 55.7693 -50.7211 240° Southwest  Level FlightAware Approximate
11:20AM 55.7083 -50.9084 240° Southwest  Level FlightAware Approximate
11:21AM 55.6469 -51.0950 240° Southwest  Level FlightAware Approximate
11:22AM 55.5853 -51.2811 240° Southwest  Level FlightAware Approximate
11:23AM 55.5234 -51.4666 240° Southwest  Level FlightAware Approximate
11:24AM 55.4613 -51.6515 239° Southwest  Level FlightAware Approximate
11:25AM 55.3988 -51.8358 239° Southwest  Level FlightAware Approximate
11:26AM 55.3361 -52.0195 239° Southwest  Level FlightAware Approximate
11:27AM 55.2731 -52.2027 239° Southwest  Level FlightAware Approximate
11:28AM 55.2098 -52.3852 239° Southwest  Level FlightAware Approximate
11:29AM 55.1463 -52.5672 239° Southwest  Level FlightAware Approximate
11:30AM 55.0825 -52.7486 238° Southwest  Level FlightAware Approximate
11:31AM 55.0184 -52.9295 238° Southwest  Level FlightAware Approximate
11:32AM 54.9540 -53.1097 238° Southwest  Level FlightAware Approximate
11:32AM 54.8167 -55.1667 233° Southwest 490 564 37,000  Level Moncton Center
11:32AM 54.7833 -55.2833 244° Southwest 490 564 37,000  Level Gander Center
11:33AM 54.8894 -53.2894 238° Southwest  Level FlightAware Approximate
11:33AM 54.7333 -55.4833 247° West 490 564 37,000  Level Gander Center
11:34AM 54.8245 -53.4685 238° Southwest  Level FlightAware Approximate
11:34AM 54.6667 -55.7000 242° Southwest 490 564 37,000  Level Gander Center
11:35AM 54.7594 -53.6470 238° Southwest  Level FlightAware Approximate
11:35AM 54.6167 -55.9167 248° West 490 564 37,000  Level Gander Center
11:36AM 54.6862 -53.8147 233° Southwest  Level Estimated
11:36AM 54.5333 -56.1000 232° Southwest 490 564 37,000  Level Gander Center
11:37AM 54.6128 -53.9818 233° Southwest  Level Estimated
11:37AM 54.4500 -56.3000 234° Southwest 490 564 37,000  Level Gander Center
11:38AM 54.3667 -56.4833 232° Southwest 500 575 37,000  Level Gander Center
11:39AM 54.3000 -56.6667 238° Southwest 500 575 37,000  Level Gander Center
11:40AM 54.2500 -56.7500 224° Southwest 500 575 37,000 780 Level Moncton Center
11:40AM 54.2000 -56.8833 237° Southwest 490 564 37,800 600 Climbing Gander Center
11:41AM 54.1333 -57.0667 238° Southwest 480 552 38,000 60 Climbing Gander Center
11:42AM 54.0500 -57.2333 230° Southwest 480 552 38,000  Level Gander Center
11:43AM 54.0000 -57.3167 224° Southwest 480 552 38,000  Level Moncton Center
11:43AM 53.9500 -57.4167 230° Southwest 480 552 38,000  Level Gander Center
11:44AM 53.8833 -57.6000 238° Southwest 480 552 38,000  Level Gander Center
11:45AM 53.8000 -57.7667 230° Southwest 490 564 38,000  Level Gander Center
11:46AM 53.7167 -57.9500 233° Southwest 480 552 38,000  Level Gander Center
11:48AM 53.5833 -58.2167 230° Southwest 480 552 38,000  Level Gander Center
11:48AM 53.5500 -58.3000 236° Southwest 480 552 38,000  Level Gander Center
11:49AM 53.4667 -58.5000 235° Southwest 480 552 38,000  Level Gander Center
11:50AM 53.3833 -58.6833 233° Southwest 480 552 38,000  Level Gander Center
11:51AM 53.2833 -58.8500 225° Southwest 480 552 38,000  Level Gander Center
11:52AM 53.2000 -59.0167 230° Southwest 480 552 38,000  Level Gander Center
11:53AM 53.1333 -59.2000 239° Southwest 480 552 38,000  Level Gander Center
11:54AM 53.0500 -59.3667 230° Southwest 480 552 38,000  Level Gander Center
11:55AM 52.9667 -59.5333 230° Southwest 490 564 38,000  Level Gander Center
11:56AM 52.8667 -59.7333 230° Southwest 490 564 38,000  Level Gander Center
11:57AM 52.7833 -59.9000 230° Southwest 480 552 38,000  Level Gander Center
11:58AM 52.7000 -60.0667 231° Southwest 480 552 38,000  Level Gander Center
11:59AM 52.6000 -60.2333 225° Southwest 480 552 38,000  Level Gander Center
12:00PM 52.5167 -60.4000 231° Southwest 480 552 38,000  Level Gander Center
12:01PM 52.4333 -60.5667 231° Southwest 480 552 38,000  Level Gander Center
12:02PM 52.4167 -60.6333 248° West 480 552 38,000  Level Moncton Center
12:03PM 52.3167 -60.8167 228° Southwest 480 552 38,000  Level Moncton Center
12:03PM 52.2667 -60.9333 235° Southwest 480 552 38,000  Level Gander Center
12:04PM 52.1833 -61.0667 224° Southwest 480 552 38,000  Level Gander Center
12:05PM 52.1000 -61.2333 231° Southwest 480 552 38,000  Level Gander Center
12:06PM 52.0667 -61.3000 231° Southwest 490 564 38,000  Level Moncton Center
12:07PM 51.9667 -61.4667 226° Southwest 480 552 38,000  Level Moncton Center
12:08PM 51.8833 -61.6333 231° Southwest 480 552 38,000  Level Moncton Center
12:08PM 51.8167 -61.7500 227° Southwest 480 552 38,000  Level Gander Center
12:09PM 51.7333 -61.9000 228° Southwest 480 552 38,000  Level Gander Center
12:10PM 51.6500 -62.0667 231° Southwest 480 552 38,000  Level Gander Center
12:11PM 51.5667 -62.2167 228° Southwest 480 552 38,000  Level Gander Center
12:12PM 51.4833 -62.3833 231° Southwest 480 552 38,000  Level Gander Center
12:13PM 51.4000 -62.5500 231° Southwest 480 552 38,000  Level Gander Center
12:14PM 51.3000 -62.7000 223° Southwest 480 552 38,000  Level Gander Center
12:15PM 51.2667 -62.7667 231° Southwest 480 552 38,000  Level Moncton Center
12:15PM 51.2167 -62.8833 236° Southwest 480 552 38,000  Level Gander Center
12:16PM 51.1333 -63.0167 225° Southwest 470 541 38,000  Level Gander Center
12:17PM 51.0833 -63.0833 220° Southwest 480 552 38,000  Level Moncton Center
12:17PM 51.0333 -63.1667 226° Southwest 480 552 38,000  Level Gander Center
12:18PM 50.9500 -63.3333 232° Southwest 470 541 38,000  Level Gander Center
12:19PM 50.8667 -63.4833 229° Southwest 470 541 38,000  Level Gander Center
12:21PM 50.7500 -63.7167 232° Southwest 470 541 38,000  Level Moncton Center
12:22PM 50.6667 -63.8500 225° Southwest 470 541 38,000  Level Moncton Center
12:22PM 50.5833 -63.9500 217° Southwest 470 541 38,000  Level Gander Center
12:23PM 50.5000 -64.1000 229° Southwest 470 541 38,000  Level Gander Center
12:24PM 50.4833 -64.1667 249° West 460 529 38,000  Level Moncton Center
12:25PM 50.4000 -64.3000 226° Southwest 470 541 38,000  Level Moncton Center
12:26PM 50.3000 -64.4500 224° Southwest 470 541 38,000  Level Moncton Center
12:26PM 50.2333 -64.5167 213° Southwest 470 541 38,000  Level Gander Center
12:27PM 50.2167 -64.5500 232° Southwest 470 541 38,000  Level Montreal Center
12:28PM 50.1167 -64.7000 224° Southwest 470 541 38,000  Level Montreal Center
12:29PM 50.0333 -64.8333 226° Southwest 470 541 38,000  Level Montreal Center
12:30PM 49.9500 -64.9833 229° Southwest 470 541 38,000  Level Montreal Center
12:31PM 49.8500 -65.1333 224° Southwest 470 541 38,000  Level Montreal Center
12:31PM 49.8000 -65.2667 240° Southwest 470 541 38,000  Level Gander Center
12:32PM 49.7167 -65.4167 229° Southwest 470 541 38,000  Level Gander Center
12:33PM 49.6667 -65.4833 221° Southwest 470 541 38,000  Level Moncton Center
12:34PM 49.5833 -65.6167 226° Southwest 460 529 38,000  Level Moncton Center
12:35PM 49.5000 -65.7667 229° Southwest 460 529 38,000  Level Moncton Center
12:36PM 49.4000 -65.9167 224° Southwest 460 529 38,000  Level Moncton Center
12:37PM 49.3167 -66.0333 222° Southwest 460 529 38,000  Level Moncton Center
12:38PM 49.2333 -66.2000 233° Southwest 460 529 38,000  Level Moncton Center
12:39PM 49.1333 -66.3167 217° Southwest 460 529 38,000  Level Moncton Center
12:39PM 49.0667 -66.4167 225° Southwest 460 529 38,000  Level Gander Center
12:40PM 49.0333 -66.4667 225° Southwest 460 529 38,000  Level Moncton Center
12:41PM 48.9500 -66.6167 230° Southwest 460 529 38,000  Level Moncton Center
12:42PM 48.8667 -66.7667 230° Southwest 460 529 38,000  Level Moncton Center
12:43PM 48.7833 -66.8833 223° Southwest 460 529 38,000  Level Moncton Center
12:44PM 48.6667 -67.0167 217° Southwest 460 529 38,000  Level Moncton Center
12:44PM 48.6167 -67.1000 228° Southwest 460 529 38,000  Level Gander Center
12:45PM 48.5833 -67.1500 225° Southwest 460 529 38,000  Level Moncton Center
12:46PM 48.5000 -67.3000 230° Southwest 460 529 38,000  Level Moncton Center
12:47PM 48.4167 -67.4167 223° Southwest 450 518 38,000  Level Moncton Center
12:48PM 48.3333 -67.5667 230° Southwest 450 518 38,000  Level Moncton Center
12:54PM 47.7780 -68.3740 230° Southwest 457 526 38,000  Level FlightAware
12:54PM 47.7170 -68.4610 224° Southwest 459 528 38,000  Level FlightAware
12:55PM 47.6490 -68.5580 224° Southwest 459 528 38,000  Level FlightAware
12:56PM 47.5890 -68.6440 224° Southwest 458 527 38,000  Level FlightAware
12:57PM 47.5180 -68.7430 223° Southwest 456 525 38,000  Level FlightAware
12:57PM 47.4580 -68.8280 224° Southwest 456 525 38,000  Level FlightAware
12:58PM 47.3900 -68.9240 224° Southwest 453 521 38,000  Level FlightAware
12:59PM 47.3280 -69.0060 222° Southwest 459 528 38,000  Level FlightAware
12:59PM 47.2620 -69.0830 218° Southwest 456 525 38,000  Level FlightAware
01:00PM 47.1870 -69.1690 218° Southwest 452 520 38,000  Level FlightAware
01:01PM 47.1220 -69.2450 219° Southwest 451 519 38,000  Level FlightAware
01:01PM 47.0570 -69.3190 218° Southwest 453 521 38,000  Level FlightAware
01:02PM 46.9830 -69.4040 218° Southwest 450 518 38,000  Level FlightAware
01:03PM 46.9180 -69.4780 218° Southwest 448 516 38,000  Level FlightAware
01:04PM 46.8430 -69.5630 218° Southwest 451 519 38,000  Level FlightAware
01:04PM 46.7780 -69.6370 218° Southwest 452 520 38,000  Level FlightAware
01:05PM 46.7120 -69.7110 218° Southwest 453 521 38,000  Level FlightAware
01:06PM 46.6380 -69.7950 218° Southwest 452 520 38,000  Level FlightAware
01:06PM 46.5720 -69.8680 217° Southwest 448 516 38,000  Level FlightAware
01:07PM 46.5060 -69.9420 218° Southwest 449 517 38,000  Level FlightAware
01:08PM 46.4330 -70.0240 218° Southwest 449 517 38,000  Level FlightAware
01:08PM 46.3670 -70.0970 217° Southwest 445 512 38,000  Level FlightAware
01:09PM 46.2940 -70.1780 217° Southwest 444 511 38,000  Level FlightAware
01:10PM 46.2290 -70.2500 217° Southwest 445 512 38,000  Level FlightAware
01:11PM 46.1550 -70.3300 217° Southwest 446 513 38,000  Level FlightAware
01:11PM 46.0900 -70.4020 218° Southwest 443 510 38,000  Level FlightAware
01:12PM 46.0250 -70.4720 217° Southwest 436 502 38,000  Level FlightAware
01:13PM 45.9540 -70.5500 217° Southwest 431 496 38,000  Level FlightAware
01:13PM 45.8910 -70.6180 217° Southwest 429 494 38,000  Level FlightAware
01:14PM 45.8280 -70.6870 217° Southwest 430 495 38,000  Level FlightAware
01:15PM 45.7560 -70.7640 217° Southwest 430 495 38,000  Level FlightAware
01:15PM 45.6940 -70.8320 217° Southwest 430 495 38,000  Level FlightAware
01:16PM 45.6220 -70.9090 217° Southwest 431 496 38,000  Level FlightAware
01:17PM 45.5590 -70.9770 217° Southwest 433 498 38,000  Level FlightAware
01:17PM 45.4940 -71.0450 216° Southwest 434 499 38,000  Level FlightAware
01:18PM 45.4220 -71.1220 217° Southwest 435 501 38,000  Level FlightAware
01:19PM 45.3590 -71.1890 217° Southwest 434 499 38,000  Level FlightAware
01:20PM 45.2940 -71.2580 217° Southwest 434 499 38,000  Level FlightAware
01:20PM 45.2240 -71.3310 216° Southwest 435 501 38,000  Level FlightAware
01:21PM 45.1710 -71.3870 217° Southwest 435 501 38,000  Level FlightAware
01:22PM 45.0960 -71.4660 217° Southwest 434 499 38,000  Level FlightAware
01:22PM 45.0220 -71.5430 216° Southwest 436 502 38,000  Level FlightAware
01:23PM 44.9500 -71.6189 216° Southwest 433 498 38,000  Level Boston Center
01:24PM 44.9000 -71.6333 192° South 430 495 38,000  Level Montreal Center
01:24PM 44.8672 -71.7081 238° Southwest 433 498 38,000  Level Boston Center
01:30PM 44.3130 -72.4110 238° Southwest 430 495 38,000  Level FlightAware
01:31PM 44.2460 -72.4950 222° Southwest 429 494 38,000  Level FlightAware
01:35PM 43.9000 -72.9230 222° Southwest 440 506 38,000  Level FlightAware
01:36PM 43.8260 -73.0140 222° Southwest 442 509 38,000  Level FlightAware
01:36PM 43.7630 -73.0910 221° Southwest 442 509 38,000  Level FlightAware
01:37PM 43.6980 -73.1710 222° Southwest 444 511 38,000  Level FlightAware
01:38PM 43.6340 -73.2480 221° Southwest 443 510 38,000  Level FlightAware
01:39PM 43.5650 -73.3320 221° Southwest 442 509 38,000  Level FlightAware
01:39PM 43.5030 -73.4060 221° Southwest 442 509 38,000  Level FlightAware
01:40PM 43.4460 -73.4760 222° Southwest 442 509 38,000  Level FlightAware
01:40PM 43.4020 -73.5280 221° Southwest 443 510 38,000  Level FlightAware
01:41PM 43.3360 -73.6060 221° Southwest 443 510 38,000  Level FlightAware
01:42PM 43.2720 -73.6840 222° Southwest 447 514 38,000 -1,020 Level FlightAware
01:43PM 43.1620 -73.8140 221° Southwest 453 521 36,300 -1,980 Descending FlightAware
01:44PM 43.0960 -73.8930 221° Southwest 452 520 34,700 -2,340 Descending FlightAware
01:44PM 43.0190 -73.9840 221° Southwest 450 518 32,800 -2,400 Descending FlightAware
01:45PM 42.9580 -74.0550 220° Southwest 449 517 31,300 -2,400 Descending FlightAware
01:46PM 42.8920 -74.1330 221° Southwest 448 516 29,600 -2,340 Descending FlightAware
01:46PM 42.8340 -74.2010 221° Southwest 446 513 28,200 -1,020 Descending FlightAware
01:47PM 42.7710 -74.2730 220° Southwest 446 513 28,200 -1,440 Level FlightAware
01:48PM 42.6890 -74.3700 221° Southwest 426 490 26,000 -1,440 Descending FlightAware
01:49PM 42.6260 -74.4410 220° Southwest 426 490 26,000  Level FlightAware
01:49PM 42.5550 -74.5240 221° Southwest 426 490 26,000  Level FlightAware
01:50PM 42.5040 -74.5830 220° Southwest 426 490 26,000  Level FlightAware
01:51PM 42.4520 -74.6410 219° Southwest 426 490 26,000  Level FlightAware
01:51PM 42.4010 -74.7000 221° Southwest 426 490 26,000  Level FlightAware
01:52PM 42.3370 -74.7730 220° Southwest 426 490 26,000  Level FlightAware
01:53PM 42.2860 -74.8310 220° Southwest 426 490 26,000 -2,040 Level FlightAware
01:56PM 42.0070 -75.0970 215° Southwest 385 443 19,400 -2,100 Descending FlightAware
01:56PM 41.9500 -75.1430 211° Southwest 385 443 19,300 -300 Descending FlightAware
01:57PM 41.8740 -75.2050 211° Southwest 381 438 19,000 -1,200 Descending FlightAware
01:57PM 41.8380 -75.2350 212° Southwest 394 453 17,900 -1,620 Descending FlightAware
01:58PM 41.7420 -75.3120 211° Southwest 390 449 16,600 -840 Descending FlightAware
01:59PM 41.7030 -75.3440 211° Southwest 390 449 16,600  Level FlightAware
01:59PM 41.6640 -75.3760 212° Southwest 390 449 16,600  Level FlightAware
02:00PM 41.6110 -75.4180 211° Southwest 390 449 16,600  Level FlightAware
02:01PM 41.5580 -75.4600 211° Southwest 390 449 16,600  Level FlightAware
02:02PM 41.4930 -75.5130 211° Southwest 390 449 16,600 -4,260 Level FlightAware
02:02PM 41.4633 -75.5381 211° Southwest 349 402 12,000 -780 Descending New York Center
02:08PM 40.8896 -75.6865 211° Southwest 341 392 11,700 -60 Descending FlightAware ADS-B
02:09PM 40.8359 -75.6861 180° South 340 391 11,700  Level FlightAware ADS-B
02:09PM 40.7823 -75.6857 180° South 341 392 11,700 -240 Level FlightAware ADS-B
02:10PM 40.7340 -75.6853 180° South 340 391 11,500 -1,200 Descending FlightAware ADS-B
02:10PM 40.6757 -75.6849 180° South 335 386 10,400 -1,260 Descending FlightAware ADS-B
02:11PM 40.6300 -75.6845 180° South 311 358 10,100 -540 Descending FlightAware ADS-B
02:11PM 40.6082 -75.6843 180° South 300 345 10,000 -480 Descending FlightAware ADS-B
02:11PM 40.5944 -75.6818 172° South 294 338 9,900 -900 Descending FlightAware ADS-B
02:11PM 40.5887 -75.6793 162° South 291 335 9,800 -480 Descending FlightAware ADS-B
02:12PM 40.5670 -75.6554 140° Southeast 283 326 9,700 -240 Descending FlightAware ADS-B
02:12PM 40.5646 -75.6509 125° Southeast 281 323 9,700  Level FlightAware ADS-B
02:12PM 40.5491 -75.6211 124° Southeast 278 320 9,700  Level FlightAware ADS-B
02:12PM 40.5376 -75.5991 125° Southeast 278 320 9,700  Level FlightAware ADS-B
02:13PM 40.5262 -75.5773 125° Southeast 281 323 9,700  Level FlightAware ADS-B
02:13PM 40.5126 -75.5510 124° Southeast 279 321 9,700  Level FlightAware ADS-B
02:13PM 40.5013 -75.5292 124° Southeast 282 325 9,700  Level FlightAware ADS-B
02:14PM 40.4862 -75.5002 124° Southeast 281 323 9,700  Level FlightAware ADS-B
02:14PM 40.4748 -75.4781 124° Southeast 280 322 9,700  Level FlightAware ADS-B
02:14PM 40.4628 -75.4550 124° Southeast 280 322 9,700  Level FlightAware ADS-B
02:14PM 40.4550 -75.4415 127° Southeast 280 322 9,700  Level FlightAware ADS-B
02:14PM 40.4482 -75.4336 139° Southeast 277 319 9,700  Level FlightAware ADS-B
02:14PM 40.4436 -75.4297 147° Southeast 274 315 9,700  Level FlightAware ADS-B
02:15PM 40.4328 -75.4227 154° Southeast 273 314 9,700 -480 Level FlightAware ADS-B
02:15PM 40.4148 -75.4119 155° Southeast 274 315 9,500 -600 Descending FlightAware ADS-B
02:15PM 40.3973 -75.4017 156° South 273 314 9,400 -600 Descending FlightAware ADS-B
02:15PM 40.3778 -75.3902 156° South 273 314 9,200 -780 Descending FlightAware ADS-B
02:16PM 40.3604 -75.3801 156° South 272 313 9,000 -780 Descending FlightAware ADS-B
02:16PM 40.3401 -75.3682 156° South 272 313 8,800 -780 Descending FlightAware ADS-B
02:16PM 40.3246 -75.3592 156° South 273 314 8,600 -840 Descending FlightAware ADS-B
02:16PM 40.3061 -75.3485 156° South 274 315 8,400 -780 Descending FlightAware ADS-B
02:17PM 40.2872 -75.3376 156° South 273 314 8,200 -840 Descending FlightAware ADS-B
02:17PM 40.2798 -75.3336 158° South 273 314 8,100 -480 Descending FlightAware ADS-B
02:17PM 40.2711 -75.3306 165° South 273 314 8,100 -600 Level FlightAware ADS-B
02:17PM 40.2672 -75.3301 174° South 272 313 8,000 -900 Descending FlightAware ADS-B
02:17PM 40.2625 -75.3301 180° South 271 312 8,000 -780 Level FlightAware ADS-B
02:17PM 40.2571 -75.3310 187° South 270 311 7,900 -900 Descending FlightAware ADS-B
02:17PM 40.2532 -75.3323 194° South 270 311 7,900 -600 Level FlightAware ADS-B
02:17PM 40.2452 -75.3356 197° South 271 312 7,800 -780 Descending FlightAware ADS-B
02:18PM 40.2246 -75.3452 200° South 274 315 7,600 -780 Descending FlightAware ADS-B
02:18PM 40.2063 -75.3537 200° South 272 313 7,400 -600 Descending FlightAware ADS-B
02:18PM 40.1878 -75.3624 200° South 271 312 7,300 -600 Descending FlightAware ADS-B
02:18PM 40.1702 -75.3707 200° South 265 305 7,100 -780 Descending FlightAware ADS-B
02:19PM 40.1513 -75.3796 200° South 263 303 6,900 -780 Descending FlightAware ADS-B
02:19PM 40.1325 -75.3885 200° South 264 304 6,700 -420 Descending FlightAware ADS-B
02:19PM 40.1146 -75.3969 200° South 254 292 6,700  Level FlightAware ADS-B
02:19PM 40.0984 -75.4045 200° South 241 277 6,700  Level FlightAware ADS-B
02:20PM 40.0829 -75.4117 200° South 231 266 6,700  Level FlightAware ADS-B
02:20PM 40.0738 -75.4158 199° South 222 255 6,700  Level FlightAware ADS-B
02:20PM 40.0689 -75.4171 191° South 219 252 6,700  Level FlightAware ADS-B
02:20PM 40.0610 -75.4169 179° South 215 247 6,700  Level FlightAware ADS-B
02:20PM 40.0459 -75.4128 168° South 219 252 6,700  Level FlightAware ADS-B
02:21PM 40.0303 -75.4083 168° South 215 247 6,700  Level FlightAware ADS-B
02:21PM 40.0146 -75.4037 167° South 218 251 6,700  Level FlightAware ADS-B
02:21PM 39.9987 -75.3990 167° South 217 250 6,700  Level FlightAware ADS-B
02:21PM 39.9815 -75.3939 167° South 218 251 6,700  Level FlightAware ADS-B
02:22PM 39.9667 -75.3894 167° South 219 252 6,700  Level FlightAware ADS-B
02:22PM 39.9570 -75.3869 169° South 217 250 6,700  Level FlightAware ADS-B
02:22PM 39.9537 -75.3866 176° South 216 249 6,700  Level FlightAware ADS-B
02:22PM 39.9502 -75.3868 183° South 215 247 6,700  Level FlightAware ADS-B
02:22PM 39.9464 -75.3878 191° South 214 246 6,700  Level FlightAware ADS-B
02:22PM 39.9434 -75.3892 200° South 215 247 6,700  Level FlightAware ADS-B
02:22PM 39.9401 -75.3913 206° Southwest 215 247 6,700  Level FlightAware ADS-B
02:22PM 39.9371 -75.3939 214° Southwest 215 247 6,700  Level FlightAware ADS-B
02:22PM 39.9345 -75.3970 222° Southwest 216 249 6,700  Level FlightAware ADS-B
02:22PM 39.9325 -75.4001 230° Southwest 216 249 6,700  Level FlightAware ADS-B
02:22PM 39.9308 -75.4035 237° Southwest 217 250 6,700  Level FlightAware ADS-B
02:22PM 39.9290 -75.4087 246° West 217 250 6,700  Level FlightAware ADS-B
02:22PM 39.9274 -75.4152 252° West 217 250 6,700  Level FlightAware ADS-B
02:23PM 39.9229 -75.4344 253° West 217 250 6,700  Level FlightAware ADS-B
02:23PM 39.9184 -75.4537 253° West 219 252 6,700  Level FlightAware ADS-B
02:23PM 39.9136 -75.4741 253° West 218 251 6,700  Level FlightAware ADS-B
02:23PM 39.9088 -75.4948 253° West 220 253 6,700  Level FlightAware ADS-B
02:24PM 39.9042 -75.5146 253° West 220 253 6,700 -240 Level FlightAware ADS-B
02:24PM 39.9006 -75.5312 254° West 220 253 6,600 -840 Descending FlightAware ADS-B
02:24PM 39.8963 -75.5524 255° West 220 253 6,300 -960 Descending FlightAware ADS-B
02:25PM 39.8925 -75.5717 256° West 216 249 6,100 -780 Descending FlightAware ADS-B
02:25PM 39.8884 -75.5916 255° West 213 245 5,900 -780 Descending FlightAware ADS-B
02:25PM 39.8847 -75.6101 255° West 213 245 5,700 -420 Descending FlightAware ADS-B
02:25PM 39.8807 -75.6293 255° West 214 246 5,700  Level FlightAware ADS-B
02:26PM 39.8762 -75.6502 254° West 215 247 5,700 -300 Level FlightAware ADS-B
02:26PM 39.8739 -75.6571 247° West 213 245 5,600 -720 Descending FlightAware ADS-B
02:26PM 39.8722 -75.6605 237° Southwest 212 244 5,600 -840 Level FlightAware ADS-B
02:26PM 39.8633 -75.6698 219° Southwest 207 238 5,400 -1,200 Descending FlightAware ADS-B
02:26PM 39.8602 -75.6712 199° South 207 238 5,300 -1,380 Descending FlightAware ADS-B
02:26PM 39.8545 -75.6724 189° South 208 239 5,200 -960 Descending FlightAware ADS-B
02:26PM 39.8476 -75.6724 180° South 208 239 5,100 -1,080 Descending FlightAware ADS-B
02:26PM 39.8326 -75.6713 177° South 209 241 4,800 -780 Descending FlightAware ADS-B
02:27PM 39.8157 -75.6703 177° South 212 244 4,700 -300 Descending FlightAware ADS-B
02:27PM 39.8096 -75.6694 174° South 213 245 4,700  Level FlightAware ADS-B
02:27PM 39.7987 -75.6635 157° South 214 246 4,700  Level FlightAware ADS-B
02:27PM 39.7953 -75.6606 147° Southeast 215 247 4,700  Level FlightAware ADS-B
02:27PM 39.7929 -75.6583 144° Southeast 218 251 4,700 -420 Level FlightAware ADS-B
02:27PM 39.7857 -75.6469 129° Southeast 218 251 4,600  Descending FlightAware ADS-B
02:28PM 39.7844 -75.6326 97° East 211 243 4,700 300 Climbing FlightAware ADS-B
02:28PM 39.7861 -75.6259 72° East 207 238 4,700  Level FlightAware ADS-B
02:28PM 39.7874 -75.6225 64° Northeast 203 234 4,700  Level FlightAware ADS-B
02:28PM 39.7889 -75.6186 63° Northeast 200 230 4,700  Level FlightAware ADS-B
02:28PM 39.7928 -75.6079 65° Northeast 196 226 4,700 -360 Level FlightAware ADS-B
02:28PM 39.7954 -75.5990 69° East 198 228 4,600 -840 Descending FlightAware ADS-B
02:28PM 39.7992 -75.5820 74° East 192 221 4,400 -600 Descending FlightAware ADS-B
02:29PM 39.8027 -75.5646 75° East 187 215 4,300 -780 Descending FlightAware ADS-B
02:29PM 39.8061 -75.5470 76° East 183 211 4,000 -1,200 Descending FlightAware ADS-B
02:29PM 39.8095 -75.5305 75° East 184 212 3,700 -960 Descending FlightAware ADS-B
02:29PM 39.8131 -75.5127 75° East 178 205 3,500 -960 Descending FlightAware ADS-B
02:30PM 39.8163 -75.4971 75° East 176 203 3,200 -1,020 Descending FlightAware ADS-B
02:30PM 39.8194 -75.4814 76° East 175 201 3,000 -1,020 Descending FlightAware ADS-B
02:30PM 39.8226 -75.4658 75° East 175 201 2,700 -1,020 Descending FlightAware ADS-B
02:30PM 39.8258 -75.4499 75° East 172 198 2,500 -840 Descending FlightAware ADS-B
02:31PM 39.8286 -75.4361 75° East 171 197 2,300 -1,080 Descending FlightAware ADS-B
02:31PM 39.8316 -75.4210 75° East 171 197 2,000 -1,080 Descending FlightAware ADS-B
02:31PM 39.8332 -75.4130 75° East 165 190 1,900 -840 Descending FlightAware ADS-B
02:31PM 39.8360 -75.3988 76° East 162 186 1,700 -780 Descending FlightAware ADS-B
02:32PM 39.8390 -75.3843 75° East 152 175 1,500 -1,020 Descending FlightAware ADS-B
02:32PM 39.8414 -75.3726 75° East 145 167 1,200 -960 Descending FlightAware ADS-B
02:32PM 39.8432 -75.3629 76° East 138 159 1,100 -720 Descending FlightAware ADS-B
02:32PM 39.8454 -75.3525 75° East 133 153 900 -840 Descending FlightAware ADS-B
02:32PM 39.8477 -75.3404 76° East 131 151 700 -720 Descending FlightAware ADS-B
02:33PM 39.8508 -75.3257 75° East 132 152 500 -660 Descending FlightAware ADS-B
02:33PM 39.8522 -75.3182 76° East 134 154 400 -180 Descending FlightAware ADS-B
02:34PM 39.8580 -75.2900 75° East 133 153 -180 Descending FlightAware
02:34PM 39.8610 -75.2730 77° East 133 153 180 Level FlightAware
02:35PM 39.8594 -75.2814 77° East 131 151 200 420 Climbing FAA TRACON SMA TRACON (SMA)